sensor_id;sensor_type;location;lat;lon;timestamp;temperature;humidity
13976;DHT22;7062;49.792;9.946;2022-09-20T00:00:35;12.00;99.90
13976;DHT22;7062;49.792;9.946;2022-09-20T00:03:01;11.90;99.90
13976;DHT22;7062;49.792;9.946;2022-09-20T00:05:26;12.00;99.90
13976;DHT22;7062;49.792;9.946;2022-09-20T00:07:52;11.90;99.90
13976;DHT22;7062;49.792;9.946;2022-09-20T00:10:17;11.90;99.90
13976;DHT22;7062;49.792;9.946;2022-09-20T00:12:43;11.90;99.90
13976;DHT22;7062;49.792;9.946;2022-09-20T00:15:09;11.90;99.90
13976;DHT22;7062;49.792;9.946;2022-09-20T00:17:34;11.80;99.90
13976;DHT22;7062;49.792;9.946;2022-09-20T00:20:00;11.80;99.90
13976;DHT22;7062;49.792;9.946;2022-09-20T00:22:26;11.80;99.90
13976;DHT22;7062;49.792;9.946;2022-09-20T00:24:51;11.80;99.90
13976;DHT22;7062;49.792;9.946;2022-09-20T00:27:17;11.70;99.90
13976;DHT22;7062;49.792;9.946;2022-09-20T00:29:43;11.70;99.90
13976;DHT22;7062;49.792;9.946;2022-09-20T00:32:08;11.70;99.90
13976;DHT22;7062;49.792;9.946;2022-09-20T00:34:34;11.60;99.90
13976;DHT22;7062;49.792;9.946;2022-09-20T00:37:18;11.70;99.90
13976;DHT22;7062;49.792;9.946;2022-09-20T00:39:44;11.60;99.90
13976;DHT22;7062;49.792;9.946;2022-09-20T00:42:13;11.60;99.90
13976;DHT22;7062;49.792;9.946;2022-09-20T00:47:45;11.50;99.90
13976;DHT22;7062;49.792;9.946;2022-09-20T00:52:37;11.60;99.90
13976;DHT22;7062;49.792;9.946;2022-09-20T00:55:06;11.50;99.90
13976;DHT22;7062;49.792;9.946;2022-09-20T00:57:32;11.60;99.90
13976;DHT22;7062;49.792;9.946;2022-09-20T01:00:03;11.60;99.90
13976;DHT22;7062;49.792;9.946;2022-09-20T01:02:31;11.60;99.90
13976;DHT22;7062;49.792;9.946;2022-09-20T01:04:58;11.60;99.90
13976;DHT22;7062;49.792;9.946;2022-09-20T01:07:24;11.60;99.90
13976;DHT22;7062;49.792;9.946;2022-09-20T01:09:50;11.60;99.90
13976;DHT22;7062;49.792;9.946;2022-09-20T01:12:21;11.60;99.90
13976;DHT22;7062;49.792;9.946;2022-09-20T01:14:50;11.60;99.90
13976;DHT22;7062;49.792;9.946;2022-09-20T01:17:17;11.70;99.90
13976;DHT22;7062;49.792;9.946;2022-09-20T01:28:05;11.60;99.90
13976;DHT22;7062;49.792;9.946;2022-09-20T01:30:37;11.60;99.90
13976;DHT22;7062;49.792;9.946;2022-09-20T01:33:12;11.60;99.90
13976;DHT22;7062;49.792;9.946;2022-09-20T01:35:45;11.60;99.90
13976;DHT22;7062;49.792;9.946;2022-09-20T01:40:58;11.60;99.90
13976;DHT22;7062;49.792;9.946;2022-09-20T01:46:28;11.60;99.90
13976;DHT22;7062;49.792;9.946;2022-09-20T02:14:37;11.40;99.90
13976;DHT22;7062;49.792;9.946;2022-09-20T02:19:48;11.30;99.90
13976;DHT22;7062;49.792;9.946;2022-09-20T02:37:21;11.10;99.90
13976;DHT22;7062;49.792;9.946;2022-09-20T02:39:26;11.10;99.90
13976;DHT22;7062;49.792;9.946;2022-09-20T02:42:17;11.00;99.90
13976;DHT22;7062;49.792;9.946;2022-09-20T02:47:24;10.90;99.90
13976;DHT22;7062;49.792;9.946;2022-09-20T03:06:40;10.80;99.90
13976;DHT22;7062;49.792;9.946;2022-09-20T03:14:30;10.60;99.90
13976;DHT22;7062;49.792;9.946;2022-09-20T03:17:15;10.60;99.90
13976;DHT22;7062;49.792;9.946;2022-09-20T03:20:20;10.60;99.90
13976;DHT22;7062;49.792;9.946;2022-09-20T03:42:17;10.40;99.90
13976;DHT22;7062;49.792;9.946;2022-09-20T03:57:53;10.40;99.90
13976;DHT22;7062;49.792;9.946;2022-09-20T04:00:24;10.30;99.90
13976;DHT22;7062;49.792;9.946;2022-09-20T04:03:16;10.30;99.90
13976;DHT22;7062;49.792;9.946;2022-09-20T04:11:45;10.20;99.90
13976;DHT22;7062;49.792;9.946;2022-09-20T04:17:34;10.10;99.90
13976;DHT22;7062;49.792;9.946;2022-09-20T04:22:47;10.00;99.90
13976;DHT22;7062;49.792;9.946;2022-09-20T04:25:38;10.00;99.90
13976;DHT22;7062;49.792;9.946;2022-09-20T04:28:29;10.00;99.90
13976;DHT22;7062;49.792;9.946;2022-09-20T04:31:04;10.00;99.90
13976;DHT22;7062;49.792;9.946;2022-09-20T04:33:36;10.00;99.90
13976;DHT22;7062;49.792;9.946;2022-09-20T04:36:13;9.90;99.90
13976;DHT22;7062;49.792;9.946;2022-09-20T04:56:19;10.00;99.90
13976;DHT22;7062;49.792;9.946;2022-09-20T04:58:54;10.10;99.90
13976;DHT22;7062;49.792;9.946;2022-09-20T05:01:51;10.10;99.90
13976;DHT22;7062;49.792;9.946;2022-09-20T05:16:28;10.30;99.90
13976;DHT22;7062;49.792;9.946;2022-09-20T05:19:26;10.30;99.90
13976;DHT22;7062;49.792;9.946;2022-09-20T05:25:18;10.30;99.90
13976;DHT22;7062;49.792;9.946;2022-09-20T05:30:49;10.40;99.90
13976;DHT22;7062;49.792;9.946;2022-09-20T05:33:28;10.50;99.90
13976;DHT22;7062;49.792;9.946;2022-09-20T05:39:17;10.50;99.90
13976;DHT22;7062;49.792;9.946;2022-09-20T05:41:54;10.50;99.90
13976;DHT22;7062;49.792;9.946;2022-09-20T05:47:30;10.70;99.90
13976;DHT22;7062;49.792;9.946;2022-09-20T05:50:23;10.70;99.90
13976;DHT22;7062;49.792;9.946;2022-09-20T06:04:47;10.70;99.90
13976;DHT22;7062;49.792;9.946;2022-09-20T06:15:00;11.00;99.90
13976;DHT22;7062;49.792;9.946;2022-09-20T06:17:44;11.00;99.90
13976;DHT22;7062;49.792;9.946;2022-09-20T06:20:45;10.90;99.90
13976;DHT22;7062;49.792;9.946;2022-09-20T06:23:13;10.90;99.90
13976;DHT22;7062;49.792;9.946;2022-09-20T06:25:47;10.80;99.90
13976;DHT22;7062;49.792;9.946;2022-09-20T06:28:21;10.80;99.90
13976;DHT22;7062;49.792;9.946;2022-09-20T06:30:50;10.80;99.90
13976;DHT22;7062;49.792;9.946;2022-09-20T06:38:37;10.80;99.90
13976;DHT22;7062;49.792;9.946;2022-09-20T06:41:32;10.80;99.90
13976;DHT22;7062;49.792;9.946;2022-09-20T06:44:00;10.90;99.90
13976;DHT22;7062;49.792;9.946;2022-09-20T06:46:31;10.90;99.90
13976;DHT22;7062;49.792;9.946;2022-09-20T06:48:57;11.00;99.90
13976;DHT22;7062;49.792;9.946;2022-09-20T06:51:25;11.10;99.90
13976;DHT22;7062;49.792;9.946;2022-09-20T06:53:52;11.10;99.90
13976;DHT22;7062;49.792;9.946;2022-09-20T06:56:24;11.20;99.90
13976;DHT22;7062;49.792;9.946;2022-09-20T06:58:51;11.30;99.90
13976;DHT22;7062;49.792;9.946;2022-09-20T07:01:18;11.30;99.90
13976;DHT22;7062;49.792;9.946;2022-09-20T07:03:44;11.40;99.90
13976;DHT22;7062;49.792;9.946;2022-09-20T07:06:10;11.30;99.90
13976;DHT22;7062;49.792;9.946;2022-09-20T07:08:37;11.30;99.90
13976;DHT22;7062;49.792;9.946;2022-09-20T07:11:12;11.20;99.90
13976;DHT22;7062;49.792;9.946;2022-09-20T07:13:40;11.20;99.90
13976;DHT22;7062;49.792;9.946;2022-09-20T07:16:09;11.20;99.90
13976;DHT22;7062;49.792;9.946;2022-09-20T07:18:35;11.20;99.90
13976;DHT22;7062;49.792;9.946;2022-09-20T07:21:00;11.30;99.90
13976;DHT22;7062;49.792;9.946;2022-09-20T07:23:27;11.40;99.90
13976;DHT22;7062;49.792;9.946;2022-09-20T07:25:54;11.50;99.90
13976;DHT22;7062;49.792;9.946;2022-09-20T07:28:22;11.60;99.90
13976;DHT22;7062;49.792;9.946;2022-09-20T07:30:48;11.60;99.90
13976;DHT22;7062;49.792;9.946;2022-09-20T07:33:14;11.60;99.90
13976;DHT22;7062;49.792;9.946;2022-09-20T07:35:55;11.60;99.90
13976;DHT22;7062;49.792;9.946;2022-09-20T07:38:21;11.90;99.90
13976;DHT22;7062;49.792;9.946;2022-09-20T07:40:55;12.10;99.90
13976;DHT22;7062;49.792;9.946;2022-09-20T07:43:21;12.30;99.90
13976;DHT22;7062;49.792;9.946;2022-09-20T07:45:49;12.60;99.90
13976;DHT22;7062;49.792;9.946;2022-09-20T07:48:23;12.80;99.90
13976;DHT22;7062;49.792;9.946;2022-09-20T07:50:57;12.80;99.90
13976;DHT22;7062;49.792;9.946;2022-09-20T07:53:23;12.70;99.90
13976;DHT22;7062;49.792;9.946;2022-09-20T07:56:15;12.70;99.90
13976;DHT22;7062;49.792;9.946;2022-09-20T07:58:43;12.60;99.90
13976;DHT22;7062;49.792;9.946;2022-09-20T08:01:11;12.70;99.90
13976;DHT22;7062;49.792;9.946;2022-09-20T08:03:37;12.80;99.90
13976;DHT22;7062;49.792;9.946;2022-09-20T08:06:09;13.00;99.90
13976;DHT22;7062;49.792;9.946;2022-09-20T08:08:37;13.10;99.90
13976;DHT22;7062;49.792;9.946;2022-09-20T08:11:05;13.30;99.90
13976;DHT22;7062;49.792;9.946;2022-09-20T08:13:35;13.60;99.90
13976;DHT22;7062;49.792;9.946;2022-09-20T08:16:03;13.80;99.90
13976;DHT22;7062;49.792;9.946;2022-09-20T08:18:29;13.80;99.90
13976;DHT22;7062;49.792;9.946;2022-09-20T08:20:55;13.60;99.90
13976;DHT22;7062;49.792;9.946;2022-09-20T08:23:21;13.30;99.90
13976;DHT22;7062;49.792;9.946;2022-09-20T08:25:46;13.20;99.90
13976;DHT22;7062;49.792;9.946;2022-09-20T08:28:12;13.10;99.90
13976;DHT22;7062;49.792;9.946;2022-09-20T08:30:38;13.10;99.90
13976;DHT22;7062;49.792;9.946;2022-09-20T08:33:04;13.00;99.90
13976;DHT22;7062;49.792;9.946;2022-09-20T08:35:34;13.00;99.90
13976;DHT22;7062;49.792;9.946;2022-09-20T08:38:00;13.00;99.90
13976;DHT22;7062;49.792;9.946;2022-09-20T08:40:27;13.00;99.90
13976;DHT22;7062;49.792;9.946;2022-09-20T08:42:54;13.20;99.90
13976;DHT22;7062;49.792;9.946;2022-09-20T08:45:22;13.30;99.90
13976;DHT22;7062;49.792;9.946;2022-09-20T08:47:58;13.40;99.90
13976;DHT22;7062;49.792;9.946;2022-09-20T08:50:25;13.40;99.90
13976;DHT22;7062;49.792;9.946;2022-09-20T08:52:56;13.30;99.90
13976;DHT22;7062;49.792;9.946;2022-09-20T08:55:26;13.50;99.90
13976;DHT22;7062;49.792;9.946;2022-09-20T08:58:04;13.70;99.90
13976;DHT22;7062;49.792;9.946;2022-09-20T09:00:32;13.70;99.90
13976;DHT22;7062;49.792;9.946;2022-09-20T09:03:04;13.70;99.90
13976;DHT22;7062;49.792;9.946;2022-09-20T09:05:34;13.80;99.90
13976;DHT22;7062;49.792;9.946;2022-09-20T09:08:05;13.70;99.90
13976;DHT22;7062;49.792;9.946;2022-09-20T09:10:37;13.70;99.90
13976;DHT22;7062;49.792;9.946;2022-09-20T09:13:04;13.50;99.90
13976;DHT22;7062;49.792;9.946;2022-09-20T09:15:33;13.60;99.90
13976;DHT22;7062;49.792;9.946;2022-09-20T09:17:59;13.50;99.90
13976;DHT22;7062;49.792;9.946;2022-09-20T09:20:26;13.40;99.90
13976;DHT22;7062;49.792;9.946;2022-09-20T09:23:04;13.40;99.90
13976;DHT22;7062;49.792;9.946;2022-09-20T09:25:32;13.30;99.90
13976;DHT22;7062;49.792;9.946;2022-09-20T09:28:03;13.30;99.90
13976;DHT22;7062;49.792;9.946;2022-09-20T09:30:44;13.20;99.90
13976;DHT22;7062;49.792;9.946;2022-09-20T09:35:43;13.20;99.90
13976;DHT22;7062;49.792;9.946;2022-09-20T09:38:21;13.30;99.90
13976;DHT22;7062;49.792;9.946;2022-09-20T09:40:56;13.60;99.90
13976;DHT22;7062;49.792;9.946;2022-09-20T09:43:27;13.90;99.90
13976;DHT22;7062;49.792;9.946;2022-09-20T09:45:55;14.10;99.90
13976;DHT22;7062;49.792;9.946;2022-09-20T09:48:27;14.50;99.90
13976;DHT22;7062;49.792;9.946;2022-09-20T09:51:21;15.00;99.90
13976;DHT22;7062;49.792;9.946;2022-09-20T09:53:48;15.20;99.90
13976;DHT22;7062;49.792;9.946;2022-09-20T09:56:19;16.30;99.90
13976;DHT22;7062;49.792;9.946;2022-09-20T10:02:03;16.60;99.90
13976;DHT22;7062;49.792;9.946;2022-09-20T10:13:31;17.60;99.90
13976;DHT22;7062;49.792;9.946;2022-09-20T10:16:13;18.80;99.90
13976;DHT22;7062;49.792;9.946;2022-09-20T10:18:54;18.60;99.90
13976;DHT22;7062;49.792;9.946;2022-09-20T10:24:31;20.00;99.90
13976;DHT22;7062;49.792;9.946;2022-09-20T10:30:06;21.40;99.90
13976;DHT22;7062;49.792;9.946;2022-09-20T10:32:45;22.70;99.90
13976;DHT22;7062;49.792;9.946;2022-09-20T10:41:14;26.30;91.40
13976;DHT22;7062;49.792;9.946;2022-09-20T10:55:17;21.10;95.40
13976;DHT22;7062;49.792;9.946;2022-09-20T11:08:36;19.70;99.30
13976;DHT22;7062;49.792;9.946;2022-09-20T11:11:24;20.80;97.80
13976;DHT22;7062;49.792;9.946;2022-09-20T11:14:02;21.80;97.00
13976;DHT22;7062;49.792;9.946;2022-09-20T11:16:56;23.70;94.30
13976;DHT22;7062;49.792;9.946;2022-09-20T11:20:17;24.10;92.70
13976;DHT22;7062;49.792;9.946;2022-09-20T11:22:45;20.90;95.20
13976;DHT22;7062;49.792;9.946;2022-09-20T11:25:19;18.90;98.40
13976;DHT22;7062;49.792;9.946;2022-09-20T11:27:52;18.10;99.90
13976;DHT22;7062;49.792;9.946;2022-09-20T11:30:21;17.30;99.90
13976;DHT22;7062;49.792;9.946;2022-09-20T11:33:05;16.90;99.90
13976;DHT22;7062;49.792;9.946;2022-09-20T11:35:52;16.90;99.90
13976;DHT22;7062;49.792;9.946;2022-09-20T11:38:48;17.90;99.90
13976;DHT22;7062;49.792;9.946;2022-09-20T11:41:28;20.80;99.50
13976;DHT22;7062;49.792;9.946;2022-09-20T11:44:10;24.00;95.80
13976;DHT22;7062;49.792;9.946;2022-09-20T11:46:50;27.10;91.60
13976;DHT22;7062;49.792;9.946;2022-09-20T11:57:43;26.10;88.80
13976;DHT22;7062;49.792;9.946;2022-09-20T12:00:09;26.40;88.30
13976;DHT22;7062;49.792;9.946;2022-09-20T12:02:48;28.50;86.80
13976;DHT22;7062;49.792;9.946;2022-09-20T12:05:29;29.90;82.10
13976;DHT22;7062;49.792;9.946;2022-09-20T12:07:57;31.40;81.40
13976;DHT22;7062;49.792;9.946;2022-09-20T12:10:26;33.90;73.70
13976;DHT22;7062;49.792;9.946;2022-09-20T12:13:04;34.40;69.30
13976;DHT22;7062;49.792;9.946;2022-09-20T12:15:41;32.20;67.90
13976;DHT22;7062;49.792;9.946;2022-09-20T12:21:00;30.10;69.80
13976;DHT22;7062;49.792;9.946;2022-09-20T12:28:47;25.50;82.10
13976;DHT22;7062;49.792;9.946;2022-09-20T12:36:32;31.60;69.20
13976;DHT22;7062;49.792;9.946;2022-09-20T12:42:34;30.10;67.40
13976;DHT22;7062;49.792;9.946;2022-09-20T12:47:30;25.70;75.90
13976;DHT22;7062;49.792;9.946;2022-09-20T12:50:16;24.20;83.00
13976;DHT22;7062;49.792;9.946;2022-09-20T12:53:11;22.50;90.70
13976;DHT22;7062;49.792;9.946;2022-09-20T12:55:53;21.10;93.30
13976;DHT22;7062;49.792;9.946;2022-09-20T12:58:38;19.90;95.30
13976;DHT22;7062;49.792;9.946;2022-09-20T13:03:46;18.90;97.60
13976;DHT22;7062;49.792;9.946;2022-09-20T13:09:04;18.20;99.30
13976;DHT22;7062;49.792;9.946;2022-09-20T13:11:53;18.00;99.90
13976;DHT22;7062;49.792;9.946;2022-09-20T13:14:24;17.60;99.90
13976;DHT22;7062;49.792;9.946;2022-09-20T13:16:58;17.50;99.90
13976;DHT22;7062;49.792;9.946;2022-09-20T13:19:32;17.60;99.90
13976;DHT22;7062;49.792;9.946;2022-09-20T13:24:26;17.60;99.90
13976;DHT22;7062;49.792;9.946;2022-09-20T13:26:55;17.60;99.90
13976;DHT22;7062;49.792;9.946;2022-09-20T13:29:38;17.40;99.90
13976;DHT22;7062;49.792;9.946;2022-09-20T13:32:24;17.20;99.90
13976;DHT22;7062;49.792;9.946;2022-09-20T13:37:36;16.80;99.90
13976;DHT22;7062;49.792;9.946;2022-09-20T13:40:03;16.80;99.90
13976;DHT22;7062;49.792;9.946;2022-09-20T13:42:32;16.60;99.90
13976;DHT22;7062;49.792;9.946;2022-09-20T13:45:01;16.50;99.90
13976;DHT22;7062;49.792;9.946;2022-09-20T13:47:30;16.60;99.90
13976;DHT22;7062;49.792;9.946;2022-09-20T13:50:15;16.60;99.90
13976;DHT22;7062;49.792;9.946;2022-09-20T13:52:47;16.80;99.90
13976;DHT22;7062;49.792;9.946;2022-09-20T13:55:39;16.60;99.90
13976;DHT22;7062;49.792;9.946;2022-09-20T13:58:31;16.60;99.90
13976;DHT22;7062;49.792;9.946;2022-09-20T14:01:03;16.40;99.90
13976;DHT22;7062;49.792;9.946;2022-09-20T14:03:32;16.50;99.90
13976;DHT22;7062;49.792;9.946;2022-09-20T14:06:00;16.50;99.90
13976;DHT22;7062;49.792;9.946;2022-09-20T14:08:37;16.60;99.90
13976;DHT22;7062;49.792;9.946;2022-09-20T14:11:24;17.00;99.90
13976;DHT22;7062;49.792;9.946;2022-09-20T14:13:54;17.10;99.90
13976;DHT22;7062;49.792;9.946;2022-09-20T14:16:23;17.10;99.90
13976;DHT22;7062;49.792;9.946;2022-09-20T14:18:52;17.20;99.90
13976;DHT22;7062;49.792;9.946;2022-09-20T14:21:24;17.20;99.90
13976;DHT22;7062;49.792;9.946;2022-09-20T14:23:52;17.20;99.90
13976;DHT22;7062;49.792;9.946;2022-09-20T14:28:48;17.40;99.90
13976;DHT22;7062;49.792;9.946;2022-09-20T14:31:27;17.40;99.90
13976;DHT22;7062;49.792;9.946;2022-09-20T14:33:57;17.60;99.90
13976;DHT22;7062;49.792;9.946;2022-09-20T14:36:26;17.30;99.90
13976;DHT22;7062;49.792;9.946;2022-09-20T14:39:01;17.00;99.90
13976;DHT22;7062;49.792;9.946;2022-09-20T14:41:34;16.80;99.90
13976;DHT22;7062;49.792;9.946;2022-09-20T14:44:01;16.60;99.90
13976;DHT22;7062;49.792;9.946;2022-09-20T14:46:36;16.30;99.90
13976;DHT22;7062;49.792;9.946;2022-09-20T14:51:53;16.30;99.90
13976;DHT22;7062;49.792;9.946;2022-09-20T14:54:26;16.50;99.90
13976;DHT22;7062;49.792;9.946;2022-09-20T14:56:56;16.60;99.90
13976;DHT22;7062;49.792;9.946;2022-09-20T14:59:26;16.60;99.90
13976;DHT22;7062;49.792;9.946;2022-09-20T15:04:33;15.90;99.90
13976;DHT22;7062;49.792;9.946;2022-09-20T15:07:06;15.70;99.90
13976;DHT22;7062;49.792;9.946;2022-09-20T15:09:33;15.30;99.90
13976;DHT22;7062;49.792;9.946;2022-09-20T15:12:00;15.00;99.90
13976;DHT22;7062;49.792;9.946;2022-09-20T15:14:26;15.00;99.90
13976;DHT22;7062;49.792;9.946;2022-09-20T15:16:52;15.00;99.90
13976;DHT22;7062;49.792;9.946;2022-09-20T15:19:18;15.30;99.90
13976;DHT22;7062;49.792;9.946;2022-09-20T15:21:43;15.30;99.90
13976;DHT22;7062;49.792;9.946;2022-09-20T15:24:09;15.60;99.90
13976;DHT22;7062;49.792;9.946;2022-09-20T15:26:35;15.70;99.90
13976;DHT22;7062;49.792;9.946;2022-09-20T15:29:01;15.60;99.90
13976;DHT22;7062;49.792;9.946;2022-09-20T15:31:26;15.50;99.90
13976;DHT22;7062;49.792;9.946;2022-09-20T15:33:53;15.40;99.90
13976;DHT22;7062;49.792;9.946;2022-09-20T15:36:18;15.50;99.90
13976;DHT22;7062;49.792;9.946;2022-09-20T15:38:44;15.40;99.90
13976;DHT22;7062;49.792;9.946;2022-09-20T15:41:10;15.20;99.90
13976;DHT22;7062;49.792;9.946;2022-09-20T15:43:37;15.00;99.90
13976;DHT22;7062;49.792;9.946;2022-09-20T15:46:20;14.80;99.90
13976;DHT22;7062;49.792;9.946;2022-09-20T15:48:46;14.80;99.90
13976;DHT22;7062;49.792;9.946;2022-09-20T15:51:13;15.00;99.90
13976;DHT22;7062;49.792;9.946;2022-09-20T15:53:42;15.10;99.90
13976;DHT22;7062;49.792;9.946;2022-09-20T15:56:19;15.20;99.90
13976;DHT22;7062;49.792;9.946;2022-09-20T15:58:49;15.20;99.90
13976;DHT22;7062;49.792;9.946;2022-09-20T16:01:16;15.20;99.90
13976;DHT22;7062;49.792;9.946;2022-09-20T16:03:44;15.20;99.90
13976;DHT22;7062;49.792;9.946;2022-09-20T16:06:11;15.20;99.90
13976;DHT22;7062;49.792;9.946;2022-09-20T16:08:40;15.20;99.90
13976;DHT22;7062;49.792;9.946;2022-09-20T16:11:07;15.30;99.90
13976;DHT22;7062;49.792;9.946;2022-09-20T16:13:33;15.20;99.90
13976;DHT22;7062;49.792;9.946;2022-09-20T16:16:03;15.30;99.90
13976;DHT22;7062;49.792;9.946;2022-09-20T16:18:30;15.70;99.90
13976;DHT22;7062;49.792;9.946;2022-09-20T16:21:16;15.80;99.90
13976;DHT22;7062;49.792;9.946;2022-09-20T16:23:49;15.70;99.90
13976;DHT22;7062;49.792;9.946;2022-09-20T16:26:16;15.60;99.90
13976;DHT22;7062;49.792;9.946;2022-09-20T16:28:43;15.40;99.90
13976;DHT22;7062;49.792;9.946;2022-09-20T16:31:28;15.10;99.90
13976;DHT22;7062;49.792;9.946;2022-09-20T16:33:55;14.80;99.90
13976;DHT22;7062;49.792;9.946;2022-09-20T16:36:21;14.70;99.90
13976;DHT22;7062;49.792;9.946;2022-09-20T16:38:49;14.50;99.90
13976;DHT22;7062;49.792;9.946;2022-09-20T16:41:15;14.50;99.90
13976;DHT22;7062;49.792;9.946;2022-09-20T16:43:41;14.50;99.90
13976;DHT22;7062;49.792;9.946;2022-09-20T16:46:06;14.50;99.90
13976;DHT22;7062;49.792;9.946;2022-09-20T16:48:33;14.40;99.90
13976;DHT22;7062;49.792;9.946;2022-09-20T16:51:00;14.40;99.90
13976;DHT22;7062;49.792;9.946;2022-09-20T16:53:26;14.30;99.90
13976;DHT22;7062;49.792;9.946;2022-09-20T16:55:52;14.20;99.90
13976;DHT22;7062;49.792;9.946;2022-09-20T16:58:26;14.10;99.90
13976;DHT22;7062;49.792;9.946;2022-09-20T17:00:53;14.00;99.90
13976;DHT22;7062;49.792;9.946;2022-09-20T17:03:19;14.00;99.90
13976;DHT22;7062;49.792;9.946;2022-09-20T17:05:46;14.00;99.90
13976;DHT22;7062;49.792;9.946;2022-09-20T17:08:12;13.90;99.90
13976;DHT22;7062;49.792;9.946;2022-09-20T17:10:38;13.90;99.90
13976;DHT22;7062;49.792;9.946;2022-09-20T17:13:03;13.90;99.90
13976;DHT22;7062;49.792;9.946;2022-09-20T17:15:31;13.90;99.90
13976;DHT22;7062;49.792;9.946;2022-09-20T17:17:57;13.80;99.90
13976;DHT22;7062;49.792;9.946;2022-09-20T17:20:22;13.90;99.90
13976;DHT22;7062;49.792;9.946;2022-09-20T17:22:51;13.80;99.90
13976;DHT22;7062;49.792;9.946;2022-09-20T17:25:19;13.60;99.90
13976;DHT22;7062;49.792;9.946;2022-09-20T17:27:44;13.60;99.90
13976;DHT22;7062;49.792;9.946;2022-09-20T17:30:12;13.50;99.90
13976;DHT22;7062;49.792;9.946;2022-09-20T17:32:38;13.50;99.90
13976;DHT22;7062;49.792;9.946;2022-09-20T17:35:03;13.40;99.90
13976;DHT22;7062;49.792;9.946;2022-09-20T17:37:29;13.30;99.90
13976;DHT22;7062;49.792;9.946;2022-09-20T17:39:56;13.30;99.90
13976;DHT22;7062;49.792;9.946;2022-09-20T17:42:26;13.30;99.90
13976;DHT22;7062;49.792;9.946;2022-09-20T17:44:52;13.40;99.90
13976;DHT22;7062;49.792;9.946;2022-09-20T17:47:18;13.40;99.90
13976;DHT22;7062;49.792;9.946;2022-09-20T17:49:45;13.40;99.90
13976;DHT22;7062;49.792;9.946;2022-09-20T17:52:10;13.30;99.90
13976;DHT22;7062;49.792;9.946;2022-09-20T17:54:36;13.30;99.90
13976;DHT22;7062;49.792;9.946;2022-09-20T17:57:02;13.30;99.90
13976;DHT22;7062;49.792;9.946;2022-09-20T17:59:29;13.30;99.90
13976;DHT22;7062;49.792;9.946;2022-09-20T18:01:55;13.30;99.90
13976;DHT22;7062;49.792;9.946;2022-09-20T18:04:21;13.30;99.90
13976;DHT22;7062;49.792;9.946;2022-09-20T18:06:50;13.20;99.90
13976;DHT22;7062;49.792;9.946;2022-09-20T18:09:18;13.20;99.90
13976;DHT22;7062;49.792;9.946;2022-09-20T18:11:47;13.30;99.90
13976;DHT22;7062;49.792;9.946;2022-09-20T18:14:18;13.30;99.90
13976;DHT22;7062;49.792;9.946;2022-09-20T18:16:45;13.30;99.90
13976;DHT22;7062;49.792;9.946;2022-09-20T18:19:12;13.50;99.90
13976;DHT22;7062;49.792;9.946;2022-09-20T18:21:40;13.50;99.90
13976;DHT22;7062;49.792;9.946;2022-09-20T18:24:07;13.50;99.90
13976;DHT22;7062;49.792;9.946;2022-09-20T18:26:33;13.40;99.90
13976;DHT22;7062;49.792;9.946;2022-09-20T18:31:31;13.40;99.90
13976;DHT22;7062;49.792;9.946;2022-09-20T18:33:59;13.40;99.90
13976;DHT22;7062;49.792;9.946;2022-09-20T18:36:29;13.30;99.90
13976;DHT22;7062;49.792;9.946;2022-09-20T18:38:56;13.30;99.90
13976;DHT22;7062;49.792;9.946;2022-09-20T18:41:33;13.30;99.90
13976;DHT22;7062;49.792;9.946;2022-09-20T18:44:00;13.20;99.90
13976;DHT22;7062;49.792;9.946;2022-09-20T18:46:27;13.20;99.90
13976;DHT22;7062;49.792;9.946;2022-09-20T18:48:56;13.10;99.90
13976;DHT22;7062;49.792;9.946;2022-09-20T18:51:23;13.10;99.90
13976;DHT22;7062;49.792;9.946;2022-09-20T18:53:50;13.00;99.90
13976;DHT22;7062;49.792;9.946;2022-09-20T18:58:50;13.00;99.90
13976;DHT22;7062;49.792;9.946;2022-09-20T19:13:35;12.80;99.90
13976;DHT22;7062;49.792;9.946;2022-09-20T19:26:34;12.90;99.90
13976;DHT22;7062;49.792;9.946;2022-09-20T19:29:30;12.80;99.90
13976;DHT22;7062;49.792;9.946;2022-09-20T19:31:58;12.60;99.90
13976;DHT22;7062;49.792;9.946;2022-09-20T19:34:29;12.50;99.90
13976;DHT22;7062;49.792;9.946;2022-09-20T19:39:33;12.40;99.90
13976;DHT22;7062;49.792;9.946;2022-09-20T19:52:58;12.40;99.90
13976;DHT22;7062;49.792;9.946;2022-09-20T19:55:29;12.40;99.90
13976;DHT22;7062;49.792;9.946;2022-09-20T19:57:55;12.40;99.90
13976;DHT22;7062;49.792;9.946;2022-09-20T20:00:21;12.30;99.90
13976;DHT22;7062;49.792;9.946;2022-09-20T20:02:47;12.30;99.90
13976;DHT22;7062;49.792;9.946;2022-09-20T20:05:18;12.20;99.90
13976;DHT22;7062;49.792;9.946;2022-09-20T20:08:19;12.20;99.90
13976;DHT22;7062;49.792;9.946;2022-09-20T20:11:12;12.20;99.90
13976;DHT22;7062;49.792;9.946;2022-09-20T20:13:44;12.20;99.90
13976;DHT22;7062;49.792;9.946;2022-09-20T20:19:38;12.10;99.90
13976;DHT22;7062;49.792;9.946;2022-09-20T20:24:51;12.00;99.90
13976;DHT22;7062;49.792;9.946;2022-09-20T20:27:18;12.00;99.90
13976;DHT22;7062;49.792;9.946;2022-09-20T20:29:44;12.00;99.90
13976;DHT22;7062;49.792;9.946;2022-09-20T20:32:10;12.10;99.90
13976;DHT22;7062;49.792;9.946;2022-09-20T20:34:36;12.00;99.90
13976;DHT22;7062;49.792;9.946;2022-09-20T20:37:05;12.10;99.90
13976;DHT22;7062;49.792;9.946;2022-09-20T20:39:31;12.10;99.90
13976;DHT22;7062;49.792;9.946;2022-09-20T20:42:06;12.10;99.90
13976;DHT22;7062;49.792;9.946;2022-09-20T20:44:33;12.00;99.90
13976;DHT22;7062;49.792;9.946;2022-09-20T20:47:02;11.80;99.90
13976;DHT22;7062;49.792;9.946;2022-09-20T20:49:28;11.80;99.90
13976;DHT22;7062;49.792;9.946;2022-09-20T20:51:54;11.70;99.90
13976;DHT22;7062;49.792;9.946;2022-09-20T20:54:24;11.70;99.90
13976;DHT22;7062;49.792;9.946;2022-09-20T20:56:50;11.80;99.90
13976;DHT22;7062;49.792;9.946;2022-09-20T20:59:15;11.70;99.90
13976;DHT22;7062;49.792;9.946;2022-09-20T21:01:42;11.60;99.90
13976;DHT22;7062;49.792;9.946;2022-09-20T21:04:10;11.60;99.90
13976;DHT22;7062;49.792;9.946;2022-09-20T21:06:38;11.60;99.90
13976;DHT22;7062;49.792;9.946;2022-09-20T21:09:08;11.50;99.90
13976;DHT22;7062;49.792;9.946;2022-09-20T21:11:36;11.50;99.90
13976;DHT22;7062;49.792;9.946;2022-09-20T21:14:03;11.50;99.90
13976;DHT22;7062;49.792;9.946;2022-09-20T21:16:33;11.40;99.90
13976;DHT22;7062;49.792;9.946;2022-09-20T21:19:00;11.30;99.90
13976;DHT22;7062;49.792;9.946;2022-09-20T21:21:34;11.30;99.90
13976;DHT22;7062;49.792;9.946;2022-09-20T21:24:02;11.30;99.90
13976;DHT22;7062;49.792;9.946;2022-09-20T21:26:29;11.20;99.90
13976;DHT22;7062;49.792;9.946;2022-09-20T21:28:57;11.00;99.90
13976;DHT22;7062;49.792;9.946;2022-09-20T21:31:28;11.00;99.90
13976;DHT22;7062;49.792;9.946;2022-09-20T21:33:55;11.00;99.90
13976;DHT22;7062;49.792;9.946;2022-09-20T21:36:23;10.90;99.90
13976;DHT22;7062;49.792;9.946;2022-09-20T21:38:49;10.90;99.90
13976;DHT22;7062;49.792;9.946;2022-09-20T21:41:22;10.70;99.90
13976;DHT22;7062;49.792;9.946;2022-09-20T21:43:51;10.60;99.90
13976;DHT22;7062;49.792;9.946;2022-09-20T21:46:25;10.50;99.90
13976;DHT22;7062;49.792;9.946;2022-09-20T21:48:53;10.50;99.90
13976;DHT22;7062;49.792;9.946;2022-09-20T21:51:19;10.40;99.90